sensor_id;sensor_type;location;lat;lon;timestamp;pressure;altitude;pressure_sealevel;temperature;humidity
37066;BME280;22981;43.080;25.550;2023-04-05T00:02:22;99170.88;;;5.32;80.58
37066;BME280;22981;43.080;25.550;2023-04-05T00:04:50;99162.48;;;5.28;80.49
37066;BME280;22981;43.080;25.550;2023-04-05T00:07:19;99156.42;;;5.24;80.54
37066;BME280;22981;43.080;25.550;2023-04-05T00:09:46;99156.63;;;5.22;80.61
37066;BME280;22981;43.080;25.550;2023-04-05T00:12:14;99150.88;;;5.19;80.54
37066;BME280;22981;43.080;25.550;2023-04-05T00:14:42;99150.23;;;5.17;80.56
37066;BME280;22981;43.080;25.550;2023-04-05T00:17:10;99150.06;;;5.18;80.52
37066;BME280;22981;43.080;25.550;2023-04-05T00:19:37;99145.23;;;5.18;80.53
37066;BME280;22981;43.080;25.550;2023-04-05T00:22:05;99147.20;;;5.20;80.50
37066;BME280;22981;43.080;25.550;2023-04-05T00:24:34;99147.20;;;5.20;80.51
37066;BME280;22981;43.080;25.550;2023-04-05T00:27:04;99148.53;;;5.20;80.49
37066;BME280;22981;43.080;25.550;2023-04-05T00:29:32;99149.42;;;5.16;80.46
37066;BME280;22981;43.080;25.550;2023-04-05T00:31:59;99153.47;;;5.12;80.53
37066;BME280;22981;43.080;25.550;2023-04-05T00:34:27;99154.55;;;5.07;80.54
37066;BME280;22981;43.080;25.550;2023-04-05T00:36:54;99154.92;;;5.04;80.59
37066;BME280;22981;43.080;25.550;2023-04-05T00:39:22;99156.77;;;5.03;80.60
37066;BME280;22981;43.080;25.550;2023-04-05T00:41:49;99153.30;;;5.03;80.57
37066;BME280;22981;43.080;25.550;2023-04-05T00:44:17;99147.48;;;5.03;80.54
37066;BME280;22981;43.080;25.550;2023-04-05T00:46:44;99156.77;;;5.03;80.47
37066;BME280;22981;43.080;25.550;2023-04-05T00:49:12;99158.09;;;5.03;80.42
37066;BME280;22981;43.080;25.550;2023-04-05T00:51:40;99163.09;;;5.02;80.43
37066;BME280;22981;43.080;25.550;2023-04-05T00:54:07;99159.62;;;5.02;80.42
37066;BME280;22981;43.080;25.550;2023-04-05T00:56:36;99157.34;;;4.99;80.41
37066;BME280;22981;43.080;25.550;2023-04-05T00:59:05;99158.22;;;4.95;80.38
37066;BME280;22981;43.080;25.550;2023-04-05T01:01:34;99162.71;;;4.95;80.45
37066;BME280;22981;43.080;25.550;2023-04-05T01:04:04;99157.61;;;4.93;80.44
37066;BME280;22981;43.080;25.550;2023-04-05T01:10:05;99161.14;;;4.90;80.48
37066;BME280;22981;43.080;25.550;2023-04-05T01:11:44;99160.32;;;4.89;80.52
37066;BME280;22981;43.080;25.550;2023-04-05T01:14:13;99159.37;;;4.86;80.40
37066;BME280;22981;43.080;25.550;2023-04-05T01:16:41;99163.34;;;4.86;80.34
37066;BME280;22981;43.080;25.550;2023-04-05T01:19:09;99165.63;;;4.89;80.28
37066;BME280;22981;43.080;25.550;2023-04-05T01:21:54;99163.86;;;4.86;80.18
37066;BME280;22981;43.080;25.550;2023-04-05T01:27:18;99165.61;;;4.78;80.08
37066;BME280;22981;43.080;25.550;2023-04-05T01:30:15;99165.81;;;4.77;80.04
37066;BME280;22981;43.080;25.550;2023-04-05T01:32:48;99169.34;;;4.73;80.07
37066;BME280;22981;43.080;25.550;2023-04-05T01:35:28;99164.98;;;4.66;79.91
37066;BME280;22981;43.080;25.550;2023-04-05T01:37:51;99165.86;;;4.62;79.94
37066;BME280;22981;43.080;25.550;2023-04-05T01:40:18;99171.66;;;4.62;79.92
37066;BME280;22981;43.080;25.550;2023-04-05T01:42:46;99170.34;;;4.62;79.91
37066;BME280;22981;43.080;25.550;2023-04-05T01:45:14;99171.87;;;4.60;79.85
37066;BME280;22981;43.080;25.550;2023-04-05T01:47:42;99169.72;;;4.60;79.85
37066;BME280;22981;43.080;25.550;2023-04-05T01:50:09;99172.74;;;4.57;79.74
37066;BME280;22981;43.080;25.550;2023-04-05T01:52:37;99179.17;;;4.58;79.65
37066;BME280;22981;43.080;25.550;2023-04-05T01:55:04;99174.58;;;4.56;79.63
37066;BME280;22981;43.080;25.550;2023-04-05T01:57:32;99177.59;;;4.53;79.52
37066;BME280;22981;43.080;25.550;2023-04-05T02:00:00;99176.27;;;4.53;79.48
37066;BME280;22981;43.080;25.550;2023-04-05T02:02:27;99176.61;;;4.54;79.41
37066;BME280;22981;43.080;25.550;2023-04-05T02:04:55;99172.63;;;4.54;79.36
37066;BME280;22981;43.080;25.550;2023-04-05T02:07:22;99171.41;;;4.57;79.33
37066;BME280;22981;43.080;25.550;2023-04-05T02:09:51;99170.91;;;4.57;79.28
37066;BME280;22981;43.080;25.550;2023-04-05T02:12:19;99171.61;;;4.55;79.25
37066;BME280;22981;43.080;25.550;2023-04-05T02:14:48;99174.72;;;4.59;79.23
37066;BME280;22981;43.080;25.550;2023-04-05T02:17:17;99166.77;;;4.59;79.21
37066;BME280;22981;43.080;25.550;2023-04-05T02:19:45;99165.91;;;4.58;79.16
37066;BME280;22981;43.080;25.550;2023-04-05T02:22:13;99168.77;;;4.57;79.13
37066;BME280;22981;43.080;25.550;2023-04-05T02:24:40;99175.59;;;4.55;79.10
37066;BME280;22981;43.080;25.550;2023-04-05T02:27:08;99173.95;;;4.54;79.06
37066;BME280;22981;43.080;25.550;2023-04-05T02:29:36;99172.48;;;4.51;79.05
37066;BME280;22981;43.080;25.550;2023-04-05T02:32:03;99172.80;;;4.52;79.04
37066;BME280;22981;43.080;25.550;2023-04-05T02:34:31;99174.27;;;4.55;78.99
37066;BME280;22981;43.080;25.550;2023-04-05T02:36:58;99173.61;;;4.53;79.09
37066;BME280;22981;43.080;25.550;2023-04-05T02:39:28;99180.24;;;4.53;79.12
37066;BME280;22981;43.080;25.550;2023-04-05T02:41:55;99174.63;;;4.52;79.15
37066;BME280;22981;43.080;25.550;2023-04-05T02:44:24;99176.91;;;4.55;79.19
37066;BME280;22981;43.080;25.550;2023-04-05T02:46:52;99172.43;;;4.56;79.24
37066;BME280;22981;43.080;25.550;2023-04-05T02:49:19;99174.43;;;4.53;79.19
37066;BME280;22981;43.080;25.550;2023-04-05T02:51:47;99175.95;;;4.52;79.17
37066;BME280;22981;43.080;25.550;2023-04-05T02:54:14;99176.16;;;4.50;79.20
37066;BME280;22981;43.080;25.550;2023-04-05T02:56:42;99174.02;;;4.50;79.15
37066;BME280;22981;43.080;25.550;2023-04-05T02:59:10;99176.32;;;4.49;79.07
37066;BME280;22981;43.080;25.550;2023-04-05T03:01:38;99183.29;;;4.50;79.07
37066;BME280;22981;43.080;25.550;2023-04-05T03:04:08;99179.63;;;4.51;79.01
37066;BME280;22981;43.080;25.550;2023-04-05T03:06:38;99183.29;;;4.50;78.89
37066;BME280;22981;43.080;25.550;2023-04-05T03:09:07;99182.64;;;4.48;78.82
37066;BME280;22981;43.080;25.550;2023-04-05T03:11:35;99190.59;;;4.48;78.79
37066;BME280;22981;43.080;25.550;2023-04-05T03:14:02;99192.94;;;4.47;78.73
37066;BME280;22981;43.080;25.550;2023-04-05T03:16:30;99196.26;;;4.45;78.64
37066;BME280;22981;43.080;25.550;2023-04-05T03:18:57;99196.14;;;4.42;78.62
37066;BME280;22981;43.080;25.550;2023-04-05T03:21:25;99196.66;;;4.42;78.65
37066;BME280;22981;43.080;25.550;2023-04-05T03:23:54;99184.89;;;4.40;78.64
37066;BME280;22981;43.080;25.550;2023-04-05T03:26:22;99195.19;;;4.39;78.61
37066;BME280;22981;43.080;25.550;2023-04-05T03:28:49;99194.37;;;4.39;78.62
37066;BME280;22981;43.080;25.550;2023-04-05T03:31:17;99191.57;;;4.36;78.65
37066;BME280;22981;43.080;25.550;2023-04-05T03:33:44;99200.84;;;4.36;78.71
37066;BME280;22981;43.080;25.550;2023-04-05T03:36:12;99202.52;;;4.37;78.67
37066;BME280;22981;43.080;25.550;2023-04-05T03:38:43;99180.51;;;4.22;78.53
37066;BME280;22981;43.080;25.550;2023-04-05T03:41:14;99204.05;;;4.32;78.47
37066;BME280;22981;43.080;25.550;2023-04-05T03:43:42;99206.09;;;4.30;78.36
37066;BME280;22981;43.080;25.550;2023-04-05T03:46:10;99199.82;;;4.26;78.30
37066;BME280;22981;43.080;25.550;2023-04-05T03:48:37;99202.16;;;4.25;78.22
37066;BME280;22981;43.080;25.550;2023-04-05T03:51:05;99205.01;;;4.24;78.23
37066;BME280;22981;43.080;25.550;2023-04-05T03:53:33;99203.84;;;4.22;78.18
37066;BME280;22981;43.080;25.550;2023-04-05T03:56:01;99207.46;;;4.25;78.15
37066;BME280;22981;43.080;25.550;2023-04-05T03:58:28;99203.60;;;4.28;78.05
37066;BME280;22981;43.080;25.550;2023-04-05T04:00:56;99207.92;;;4.29;77.93
37066;BME280;22981;43.080;25.550;2023-04-05T04:03:23;99204.11;;;4.27;77.85
37066;BME280;22981;43.080;25.550;2023-04-05T04:05:51;99205.94;;;4.27;77.80
37066;BME280;22981;43.080;25.550;2023-04-05T04:08:19;99212.45;;;4.24;77.77
37066;BME280;22981;43.080;25.550;2023-04-05T04:10:47;99209.45;;;4.23;77.76
37066;BME280;22981;43.080;25.550;2023-04-05T04:13:14;99216.59;;;4.23;77.71
37066;BME280;22981;43.080;25.550;2023-04-05T04:15:44;99216.98;;;4.20;77.68
37066;BME280;22981;43.080;25.550;2023-04-05T04:18:12;99215.31;;;4.19;77.71
37066;BME280;22981;43.080;25.550;2023-04-05T04:20:39;99216.64;;;4.19;77.66
37066;BME280;22981;43.080;25.550;2023-04-05T04:23:07;99216.13;;;4.19;77.64
37066;BME280;22981;43.080;25.550;2023-04-05T04:25:36;99219.62;;;4.20;77.63
37066;BME280;22981;43.080;25.550;2023-04-05T04:28:05;99217.80;;;4.20;77.61
37066;BME280;22981;43.080;25.550;2023-04-05T04:30:34;99212.81;;;4.21;77.51
37066;BME280;22981;43.080;25.550;2023-04-05T04:33:02;99213.44;;;4.23;77.50
37066;BME280;22981;43.080;25.550;2023-04-05T04:35:33;99215.22;;;4.27;77.54
37066;BME280;22981;43.080;25.550;2023-04-05T04:38:03;99216.48;;;4.31;77.44
37066;BME280;22981;43.080;25.550;2023-04-05T04:40:37;99215.48;;;4.32;77.34
37066;BME280;22981;43.080;25.550;2023-04-05T04:43:15;99221.42;;;4.34;77.33
37066;BME280;22981;43.080;25.550;2023-04-05T04:45:48;99215.81;;;4.33;77.19
37066;BME280;22981;43.080;25.550;2023-04-05T04:48:17;99220.47;;;4.31;77.18
37066;BME280;22981;43.080;25.550;2023-04-05T04:50:46;99220.30;;;4.33;77.21
37066;BME280;22981;43.080;25.550;2023-04-05T04:53:15;99214.61;;;4.36;77.19
37066;BME280;22981;43.080;25.550;2023-04-05T04:55:47;99217.41;;;4.38;77.10
37066;BME280;22981;43.080;25.550;2023-04-05T04:58:16;99218.84;;;4.41;77.01
37066;BME280;22981;43.080;25.550;2023-04-05T05:00:44;99213.38;;;4.42;76.98
37066;BME280;22981;43.080;25.550;2023-04-05T05:03:12;99210.84;;;4.45;76.87
37066;BME280;22981;43.080;25.550;2023-04-05T05:05:48;99214.59;;;4.50;76.79
37066;BME280;22981;43.080;25.550;2023-04-05T05:08:17;99212.39;;;4.54;76.79
37066;BME280;22981;43.080;25.550;2023-04-05T05:10:44;99210.31;;;4.60;76.77
37066;BME280;22981;43.080;25.550;2023-04-05T05:13:12;99213.52;;;4.66;76.69
37066;BME280;22981;43.080;25.550;2023-04-05T05:15:39;99220.61;;;4.70;76.63
37066;BME280;22981;43.080;25.550;2023-04-05T05:18:07;99216.06;;;4.74;76.59
37066;BME280;22981;43.080;25.550;2023-04-05T05:20:35;99218.86;;;4.77;76.41
37066;BME280;22981;43.080;25.550;2023-04-05T05:23:03;99219.98;;;4.78;76.28
37066;BME280;22981;43.080;25.550;2023-04-05T05:25:30;99217.58;;;4.84;76.22
37066;BME280;22981;43.080;25.550;2023-04-05T05:27:58;99221.13;;;4.91;76.11
37066;BME280;22981;43.080;25.550;2023-04-05T05:30:25;99222.20;;;4.96;75.91
37066;BME280;22981;43.080;25.550;2023-04-05T05:32:54;99214.69;;;5.00;75.85
37066;BME280;22981;43.080;25.550;2023-04-05T05:35:23;99211.16;;;5.03;75.69
37066;BME280;22981;43.080;25.550;2023-04-05T05:37:50;99208.44;;;5.08;75.50
37066;BME280;22981;43.080;25.550;2023-04-05T05:40:18;99208.52;;;5.14;75.44
37066;BME280;22981;43.080;25.550;2023-04-05T05:42:46;99212.22;;;5.20;75.27
37066;BME280;22981;43.080;25.550;2023-04-05T05:45:13;99212.09;;;5.28;75.14
37066;BME280;22981;43.080;25.550;2023-04-05T05:47:41;99212.53;;;5.32;74.88
37066;BME280;22981;43.080;25.550;2023-04-05T05:50:08;99217.40;;;5.28;74.64
37066;BME280;22981;43.080;25.550;2023-04-05T05:52:36;99212.09;;;5.28;74.45
37066;BME280;22981;43.080;25.550;2023-04-05T05:55:04;99214.61;;;5.25;74.35
37066;BME280;22981;43.080;25.550;2023-04-05T05:57:32;99212.70;;;5.30;74.44
37066;BME280;22981;43.080;25.550;2023-04-05T06:00:00;99218.19;;;5.39;74.48
37066;BME280;22981;43.080;25.550;2023-04-05T06:02:27;99217.06;;;5.48;74.28
37066;BME280;22981;43.080;25.550;2023-04-05T06:04:55;99220.97;;;5.52;73.98
37066;BME280;22981;43.080;25.550;2023-04-05T06:07:23;99219.95;;;5.53;73.86
37066;BME280;22981;43.080;25.550;2023-04-05T06:09:51;99224.68;;;5.58;73.81
37066;BME280;22981;43.080;25.550;2023-04-05T06:12:20;99225.42;;;5.63;73.56
37066;BME280;22981;43.080;25.550;2023-04-05T06:14:47;99224.92;;;5.63;73.52
37066;BME280;22981;43.080;25.550;2023-04-05T06:17:15;99231.62;;;5.70;73.75
37066;BME280;22981;43.080;25.550;2023-04-05T06:19:42;99231.06;;;5.81;73.76
37066;BME280;22981;43.080;25.550;2023-04-05T06:22:10;99233.95;;;5.86;73.36
37066;BME280;22981;43.080;25.550;2023-04-05T06:24:38;99236.53;;;5.90;72.95
37066;BME280;22981;43.080;25.550;2023-04-05T06:27:05;99236.72;;;5.99;72.60
37066;BME280;22981;43.080;25.550;2023-04-05T06:29:33;99241.95;;;6.03;72.08
37066;BME280;22981;43.080;25.550;2023-04-05T06:32:01;99242.44;;;6.14;72.03
37066;BME280;22981;43.080;25.550;2023-04-05T06:34:28;99245.03;;;6.24;71.42
37066;BME280;22981;43.080;25.550;2023-04-05T06:36:56;99238.64;;;6.30;71.08
37066;BME280;22981;43.080;25.550;2023-04-05T06:39:24;99248.69;;;6.34;70.87
37066;BME280;22981;43.080;25.550;2023-04-05T06:41:51;99243.98;;;6.36;70.73
37066;BME280;22981;43.080;25.550;2023-04-05T06:44:19;99251.14;;;6.36;70.45
37066;BME280;22981;43.080;25.550;2023-04-05T06:46:46;99248.61;;;6.38;70.44
37066;BME280;22981;43.080;25.550;2023-04-05T06:49:14;99256.16;;;6.41;70.08
37066;BME280;22981;43.080;25.550;2023-04-05T06:51:41;99258.59;;;6.36;70.20
37066;BME280;22981;43.080;25.550;2023-04-05T06:54:09;99258.38;;;6.31;70.18
37066;BME280;22981;43.080;25.550;2023-04-05T06:56:37;99261.94;;;6.27;70.21
37066;BME280;22981;43.080;25.550;2023-04-05T06:59:04;99267.97;;;6.25;70.19
37066;BME280;22981;43.080;25.550;2023-04-05T07:01:32;99268.66;;;6.23;70.30
37066;BME280;22981;43.080;25.550;2023-04-05T07:03:59;99271.31;;;6.23;70.49
37066;BME280;22981;43.080;25.550;2023-04-05T07:06:27;99278.91;;;6.26;70.60
37066;BME280;22981;43.080;25.550;2023-04-05T07:08:55;99271.44;;;6.26;70.62
37066;BME280;22981;43.080;25.550;2023-04-05T07:11:22;99268.27;;;6.26;70.64
37066;BME280;22981;43.080;25.550;2023-04-05T07:13:50;99271.75;;;6.27;70.70
37066;BME280;22981;43.080;25.550;2023-04-05T07:16:17;99270.93;;;6.26;70.70
37066;BME280;22981;43.080;25.550;2023-04-05T07:18:47;99278.47;;;6.23;70.50
37066;BME280;22981;43.080;25.550;2023-04-05T07:21:15;99277.14;;;6.23;70.56
37066;BME280;22981;43.080;25.550;2023-04-05T07:23:43;99267.97;;;6.25;70.61
37066;BME280;22981;43.080;25.550;2023-04-05T07:26:11;99273.69;;;6.29;70.58
37066;BME280;22981;43.080;25.550;2023-04-05T07:28:38;99276.34;;;6.29;70.53
37066;BME280;22981;43.080;25.550;2023-04-05T07:31:06;99278.19;;;6.28;70.46
37066;BME280;22981;43.080;25.550;2023-04-05T07:33:34;99281.87;;;6.27;70.47
37066;BME280;22981;43.080;25.550;2023-04-05T07:36:02;99272.69;;;6.30;70.34
37066;BME280;22981;43.080;25.550;2023-04-05T07:38:29;99269.63;;;6.33;70.35
37066;BME280;22981;43.080;25.550;2023-04-05T07:40:57;99273.73;;;6.36;70.38
37066;BME280;22981;43.080;25.550;2023-04-05T07:43:24;99277.08;;;6.34;70.17
37066;BME280;22981;43.080;25.550;2023-04-05T07:45:59;99269.44;;;6.35;70.04
37066;BME280;22981;43.080;25.550;2023-04-05T07:48:21;99279.74;;;6.34;69.91
37066;BME280;22981;43.080;25.550;2023-04-05T07:50:49;99273.20;;;6.30;69.90
37066;BME280;22981;43.080;25.550;2023-04-05T07:53:18;99282.30;;;6.31;70.00
37066;BME280;22981;43.080;25.550;2023-04-05T07:55:45;99281.28;;;6.32;69.96
37066;BME280;22981;43.080;25.550;2023-04-05T07:58:13;99279.56;;;6.35;69.81
37066;BME280;22981;43.080;25.550;2023-04-05T08:00:41;99275.67;;;6.38;69.66
37066;BME280;22981;43.080;25.550;2023-04-05T08:03:09;99274.27;;;6.42;69.46
37066;BME280;22981;43.080;25.550;2023-04-05T08:05:37;99282.88;;;6.44;69.19
37066;BME280;22981;43.080;25.550;2023-04-05T08:08:04;99274.91;;;6.44;69.02
37066;BME280;22981;43.080;25.550;2023-04-05T08:10:38;99273.88;;;6.45;69.01
37066;BME280;22981;43.080;25.550;2023-04-05T08:13:06;99278.73;;;6.59;69.18
37066;BME280;22981;43.080;25.550;2023-04-05T08:15:34;99278.73;;;6.59;69.18
37066;BME280;22981;43.080;25.550;2023-04-05T08:18:01;99285.64;;;6.64;69.08
37066;BME280;22981;43.080;25.550;2023-04-05T08:20:29;99283.80;;;6.64;68.95
37066;BME280;22981;43.080;25.550;2023-04-05T08:22:56;99285.65;;;6.70;68.99
37066;BME280;22981;43.080;25.550;2023-04-05T08:25:24;99285.27;;;6.73;68.77
37066;BME280;22981;43.080;25.550;2023-04-05T08:27:51;99279.13;;;6.73;68.48
37066;BME280;22981;43.080;25.550;2023-04-05T08:30:19;99287.28;;;6.71;68.37
37066;BME280;22981;43.080;25.550;2023-04-05T08:32:48;99288.44;;;6.73;68.39
37066;BME280;22981;43.080;25.550;2023-04-05T08:35:16;99290.77;;;6.72;68.30
37066;BME280;22981;43.080;25.550;2023-04-05T08:37:43;99292.09;;;6.72;68.32
37066;BME280;22981;43.080;25.550;2023-04-05T08:40:13;99294.88;;;6.74;68.42
37066;BME280;22981;43.080;25.550;2023-04-05T08:42:45;99305.13;;;6.77;68.35
37066;BME280;22981;43.080;25.550;2023-04-05T08:45:13;99299.39;;;6.81;68.24
37066;BME280;22981;43.080;25.550;2023-04-05T08:47:41;99302.98;;;6.84;68.16
37066;BME280;22981;43.080;25.550;2023-04-05T08:50:10;99305.95;;;6.85;67.77
37066;BME280;22981;43.080;25.550;2023-04-05T08:52:39;99300.45;;;6.86;67.69
37066;BME280;22981;43.080;25.550;2023-04-05T08:55:08;99301.27;;;6.87;67.51
37066;BME280;22981;43.080;25.550;2023-04-05T08:57:37;99297.50;;;6.92;67.45
37066;BME280;22981;43.080;25.550;2023-04-05T09:00:07;99303.34;;;6.98;67.45
37066;BME280;22981;43.080;25.550;2023-04-05T09:02:35;99298.26;;;7.03;67.46
37066;BME280;22981;43.080;25.550;2023-04-05T09:05:07;99295.08;;;7.10;67.44
37066;BME280;22981;43.080;25.550;2023-04-05T09:07:35;99304.22;;;7.12;67.38
37066;BME280;22981;43.080;25.550;2023-04-05T09:10:05;99299.63;;;7.16;67.38
37066;BME280;22981;43.080;25.550;2023-04-05T09:12:34;99303.19;;;7.19;67.10
37066;BME280;22981;43.080;25.550;2023-04-05T09:15:04;99307.91;;;7.17;67.06
37066;BME280;22981;43.080;25.550;2023-04-05T09:17:32;99310.05;;;7.18;67.14
37066;BME280;22981;43.080;25.550;2023-04-05T09:20:00;99307.39;;;7.18;67.01
37066;BME280;22981;43.080;25.550;2023-04-05T09:22:28;99309.12;;;7.15;66.87
37066;BME280;22981;43.080;25.550;2023-04-05T09:24:56;99301.22;;;7.11;66.90
37066;BME280;22981;43.080;25.550;2023-04-05T09:27:23;99303.48;;;7.14;66.84
37066;BME280;22981;43.080;25.550;2023-04-05T09:29:51;99305.45;;;7.22;67.01
37066;BME280;22981;43.080;25.550;2023-04-05T09:32:18;99305.48;;;7.36;66.94
37066;BME280;22981;43.080;25.550;2023-04-05T09:34:47;99300.99;;;7.43;66.75
37066;BME280;22981;43.080;25.550;2023-04-05T09:37:19;99305.61;;;7.51;66.58
37066;BME280;22981;43.080;25.550;2023-04-05T09:39:49;99303.88;;;7.55;66.11
37066;BME280;22981;43.080;25.550;2023-04-05T09:42:19;99306.03;;;7.55;66.08
37066;BME280;22981;43.080;25.550;2023-04-05T09:44:58;99306.84;;;7.56;65.93
37066;BME280;22981;43.080;25.550;2023-04-05T09:47:31;99301.73;;;7.54;65.96
37066;BME280;22981;43.080;25.550;2023-04-05T09:52:38;99310.63;;;7.50;66.05
37066;BME280;22981;43.080;25.550;2023-04-05T09:55:06;99309.82;;;7.50;66.10
37066;BME280;22981;43.080;25.550;2023-04-05T09:57:36;99308.88;;;7.47;66.10
37066;BME280;22981;43.080;25.550;2023-04-05T10:00:05;99301.61;;;7.51;66.23
37066;BME280;22981;43.080;25.550;2023-04-05T10:02:37;99300.28;;;7.51;66.21
37066;BME280;22981;43.080;25.550;2023-04-05T10:05:11;99311.95;;;7.57;66.19
37066;BME280;22981;43.080;25.550;2023-04-05T10:07:41;99306.13;;;7.64;66.05
37066;BME280;22981;43.080;25.550;2023-04-05T10:10:12;99308.89;;;7.73;65.86
37066;BME280;22981;43.080;25.550;2023-04-05T10:12:41;99305.61;;;7.78;65.77
37066;BME280;22981;43.080;25.550;2023-04-05T10:15:11;99299.66;;;7.83;65.74
37066;BME280;22981;43.080;25.550;2023-04-05T10:17:58;99302.66;;;7.84;65.64
37066;BME280;22981;43.080;25.550;2023-04-05T10:20:27;99301.73;;;7.81;65.52
37066;BME280;22981;43.080;25.550;2023-04-05T10:23:11;99302.23;;;7.73;65.41
37066;BME280;22981;43.080;25.550;2023-04-05T10:28:33;99301.20;;;7.61;65.45
37066;BME280;22981;43.080;25.550;2023-04-05T10:33:46;99297.22;;;7.55;65.64
37066;BME280;22981;43.080;25.550;2023-04-05T10:36:42;99298.65;;;7.50;65.57
37066;BME280;22981;43.080;25.550;2023-04-05T10:39:12;99303.98;;;7.50;65.58
37066;BME280;22981;43.080;25.550;2023-04-05T10:41:52;99298.44;;;7.52;65.46
37066;BME280;22981;43.080;25.550;2023-04-05T10:44:11;99301.81;;;7.57;65.47
37066;BME280;22981;43.080;25.550;2023-04-05T10:46:40;99302.23;;;7.60;65.47
37066;BME280;22981;43.080;25.550;2023-04-05T10:49:21;99296.39;;;7.61;65.42
37066;BME280;22981;43.080;25.550;2023-04-05T10:51:50;99298.45;;;7.59;65.33
37066;BME280;22981;43.080;25.550;2023-04-05T10:54:19;99304.30;;;7.58;65.40
37066;BME280;22981;43.080;25.550;2023-04-05T10:56:47;99299.78;;;7.59;65.41
37066;BME280;22981;43.080;25.550;2023-04-05T10:59:15;99298.97;;;7.58;65.38
37066;BME280;22981;43.080;25.550;2023-04-05T11:01:45;99297.72;;;7.61;65.53
37066;BME280;22981;43.080;25.550;2023-04-05T11:04:16;99304.40;;;7.67;65.64
37066;BME280;22981;43.080;25.550;2023-04-05T11:06:43;99301.81;;;7.70;65.63
37066;BME280;22981;43.080;25.550;2023-04-05T11:09:19;99307.97;;;7.70;65.59
37066;BME280;22981;43.080;25.550;2023-04-05T11:11:48;99307.66;;;7.69;65.46
37066;BME280;22981;43.080;25.550;2023-04-05T11:14:35;99303.06;;;7.67;65.39
37066;BME280;22981;43.080;25.550;2023-04-05T11:17:24;99300.30;;;7.71;65.23
37066;BME280;22981;43.080;25.550;2023-04-05T11:20:05;99301.02;;;7.76;65.34
37066;BME280;22981;43.080;25.550;2023-04-05T11:22:34;99299.05;;;7.87;65.23
37066;BME280;22981;43.080;25.550;2023-04-05T11:25:02;99297.30;;;8.03;64.94
37066;BME280;22981;43.080;25.550;2023-04-05T11:27:34;99295.23;;;8.12;64.70
37066;BME280;22981;43.080;25.550;2023-04-05T11:30:08;99300.56;;;8.19;64.62
37066;BME280;22981;43.080;25.550;2023-04-05T11:32:40;99295.75;;;8.18;64.27
37066;BME280;22981;43.080;25.550;2023-04-05T11:35:13;99287.75;;;8.12;64.46
37066;BME280;22981;43.080;25.550;2023-04-05T11:40:30;99301.45;;;8.42;64.24
37066;BME280;22981;43.080;25.550;2023-04-05T11:43:05;99291.55;;;8.56;63.84
37066;BME280;22981;43.080;25.550;2023-04-05T11:45:36;99291.73;;;8.61;63.51
37066;BME280;22981;43.080;25.550;2023-04-05T11:48:05;99254.09;;;8.24;63.57
37066;BME280;22981;43.080;25.550;2023-04-05T11:50:34;99294.89;;;8.44;63.80
37066;BME280;22981;43.080;25.550;2023-04-05T11:53:10;99296.94;;;8.42;63.75
37066;BME280;22981;43.080;25.550;2023-04-05T11:55:41;99291.09;;;8.36;63.65
37066;BME280;22981;43.080;25.550;2023-04-05T11:58:24;99289.64;;;8.34;63.85
37066;BME280;22981;43.080;25.550;2023-04-05T12:01:06;99284.75;;;8.37;63.77
37066;BME280;22981;43.080;25.550;2023-04-05T12:03:30;99286.78;;;8.48;63.55
37066;BME280;22981;43.080;25.550;2023-04-05T12:06:00;99285.41;;;8.55;63.37
37066;BME280;22981;43.080;25.550;2023-04-05T12:08:44;99285.22;;;8.57;63.24
37066;BME280;22981;43.080;25.550;2023-04-05T12:11:27;99285.70;;;8.56;63.16
37066;BME280;22981;43.080;25.550;2023-04-05T12:14:00;99285.33;;;8.52;63.12
37066;BME280;22981;43.080;25.550;2023-04-05T12:16:29;99284.00;;;8.52;63.07
37066;BME280;22981;43.080;25.550;2023-04-05T12:18:58;99287.08;;;8.49;63.07
37066;BME280;22981;43.080;25.550;2023-04-05T12:21:26;99291.08;;;8.49;63.02
37066;BME280;22981;43.080;25.550;2023-04-05T12:23:54;99292.71;;;8.50;63.05
37066;BME280;22981;43.080;25.550;2023-04-05T12:26:22;99287.89;;;8.50;63.04
37066;BME280;22981;43.080;25.550;2023-04-05T12:28:52;99292.11;;;8.48;63.00
37066;BME280;22981;43.080;25.550;2023-04-05T12:31:42;99287.08;;;8.49;62.87
37066;BME280;22981;43.080;25.550;2023-04-05T12:34:12;99284.37;;;8.56;62.85
37066;BME280;22981;43.080;25.550;2023-04-05T12:36:44;99285.88;;;8.68;62.73
37066;BME280;22981;43.080;25.550;2023-04-05T12:39:12;99282.38;;;8.74;62.63
37066;BME280;22981;43.080;25.550;2023-04-05T12:41:41;99284.82;;;8.75;62.71
37066;BME280;22981;43.080;25.550;2023-04-05T12:44:27;99285.22;;;8.79;62.58
37066;BME280;22981;43.080;25.550;2023-04-05T12:46:46;99285.52;;;8.80;62.37
37066;BME280;22981;43.080;25.550;2023-04-05T12:49:18;99280.08;;;8.77;62.42
37066;BME280;22981;43.080;25.550;2023-04-05T12:51:46;99282.38;;;8.74;62.46
37066;BME280;22981;43.080;25.550;2023-04-05T12:54:21;99280.53;;;8.68;62.36
37066;BME280;22981;43.080;25.550;2023-04-05T12:56:52;99283.83;;;8.70;62.68
37066;BME280;22981;43.080;25.550;2023-04-05T12:59:21;99279.08;;;8.72;62.57
37066;BME280;22981;43.080;25.550;2023-04-05T13:01:49;99272.52;;;8.74;62.26
37066;BME280;22981;43.080;25.550;2023-04-05T13:04:16;99272.77;;;8.82;61.81
37066;BME280;22981;43.080;25.550;2023-04-05T13:06:44;99274.08;;;8.89;61.77
37066;BME280;22981;43.080;25.550;2023-04-05T13:09:13;99271.11;;;8.88;61.69
37066;BME280;22981;43.080;25.550;2023-04-05T13:11:41;99271.75;;;8.83;61.67
37066;BME280;22981;43.080;25.550;2023-04-05T13:14:08;99283.48;;;8.75;61.73
37066;BME280;22981;43.080;25.550;2023-04-05T13:16:36;99276.64;;;8.70;61.89
37066;BME280;22981;43.080;25.550;2023-04-05T13:19:04;99280.46;;;8.65;61.98
37066;BME280;22981;43.080;25.550;2023-04-05T13:21:31;99277.51;;;8.58;61.97
37066;BME280;22981;43.080;25.550;2023-04-05T13:23:59;99282.14;;;8.53;62.07
37066;BME280;22981;43.080;25.550;2023-04-05T13:26:26;99279.89;;;8.50;62.12
37066;BME280;22981;43.080;25.550;2023-04-05T13:28:54;99282.04;;;8.50;62.23